Ain Beida Airport

DAUU · Ouargla, 阿尔及利亚

罗盘
风向 的 风向 的 风向 到 风向 030° Ain Beida Airport 18/36
风: 16 kt, 4 beaufort

14 kt

8 kt
改变
0 ft 1.000 2.000 3.000 4.000 5.000
没有观察到明显的云
METAR DAUU 241700Z 03016KT 360V060 3000 DRSA NSC 37/13 Q1004

METAR Ain Beida Airport - DAUU/OGX

Ain Beida Airport是,阿尔及利亚中的中型机场。 该机场位于纬度31,91720和经度5,41278。 该机场有2条跑道: 18/36 和 2/20. 本场的ICAO机场代码为DAUU。 该机场的IATA代码为OGX。 机场在Alger FIR中。

该航空气象观测是针对Ain Beida Airport在2024年6月24日 18:00, 当地时间进行的。

机场观察

风向为030°,速度为16 kt。 风向在360°和060°之间变化。

可见度为3 km。

有没有观察到明显的云。 没有观察到天花板。

当前天气为低飘 沙。 温度和风寒是37 °C。 露点为13 °C,相对湿度为24%。 海平面上的气压为1004 hPa (QNH)。

白天

今天,太阳从05:33升起,在19:47降落。 这适用于Ain Beida Airport,世界夏令时可能有所不同。 当地时间与世界标准时间之间的时差为+1 小时。 夏令时目前正在进行中。

公司介绍

我们没有关于这个机场的公司信息。

体会

到Vliegles.nl去找飞行课程,跳伞和其他飞行体验。 浏览页面,了解Ain Beida Airport附近所有可用的活动。 你也可以使用搜索功能来寻找你所在地附近的特定飞行课程、跳伞或其他飞行体验。

跑道

Id 标题 侧风 逆风 侧风 %
18/36 180°-360° 8 kt 14 kt 50 %
2/20 016°-196° 4 kt 16 kt 24 %

逆风成分最大的方向会被突出显示,并用于横风计算。 这并不一定意味着这个方向在使用。

乌云

- NSC 没有观察到明显的云

温度 & 天气

天气 低飘 沙
温度 37 °C
露点 13 °C
相对湿度 24%
Kp-index 2 (0-9)

白天

日出
05:33
中午
12:40
日落
19:47 (1:07)

小工具

你想在你的网站上有一个关于Ain Beida Airport的当前航空天气(METAR)的小部件吗?

显示HTML代码
报告变更